Hlavní strana
METAR-TAF:

METAR-TAF

Letiště :

Letiště Kunovice

Uherské Hradiště, Česká republika

zeměpisná šířka: 49-01-46N, zeměpisná délka: 017-26-23E, výška: 177 m

Aktuální stav počasí

Zpráva byla vytvořena před 1 hodinou a 15 minutami, v 13:00 UTC
Západní vítr 9 kt, proměnlivý mezi jihozápadním a severozápadním
Teplota 24°C
Vlhkost vzduchu 41%
Tlak 1018 hPa
Viditelnost 10 km a více
Žádná oblačnost pod 1500 m, nevyskytují se cumulonimby.

METAR: LKKU 141300Z 26009KT 220V310 CAVOK 24/10 Q1018

Čas: 16:15 (14:15 UTC)


TAF: chybějící

Stav a předpovědi počasí z více než 4 000 letišť (zprávy METAR a TAF).

Červené a žluté tečky na mapě představují dostupné meteorologické stanice.

Když kurzor umístíte na tečku, zobrazí se název stanice.

Pak kliknutím zobrazíte stav a předpověď počasí.

Chcete-li změnit mapu, kliknutím na zelené tlačítko se znaménkem +mapu přiblížíte, kliknutím na zelené tlačítko se znaménkem – mapu oddálíte a kliknutím na zelené šipky přejdete na sousední mapy.


METAR-TAF: